Time;durP1;ratioP1;P1;durP2;ratioP2;P2;SDS_P1;SDS_P2;PMS_P1;PMS_P2;Temp;Humidity;BMP_temperature;BMP_pressure;BME280_temperature;BME280_humidity;BME280_pressure;Samples;Min_cycle;Max_cycle;Signal;HPM_P1;HPM_P2
2021/11/10 00:02:03;;;;;;;16.55;8.07;;;3.00;99.90;;;;;;5045193;28;20382;-79
2021/11/10 00:04:29;;;;;;;15.48;8.63;;;2.90;99.90;;;;;;5045699;28;20025;-80
2021/11/10 00:06:58;;;;;;;18.00;9.65;;;2.90;99.90;;;;;;5041564;28;20029;-79
2021/11/10 00:09:24;;;;;;;17.88;10.98;;;2.90;99.90;;;;;;5024636;28;20022;-77
2021/11/10 00:11:50;;;;;;;17.45;10.18;;;2.90;99.90;;;;;;5043432;28;20040;-79
2021/11/10 00:14:16;;;;;;;15.38;9.95;;;2.90;99.90;;;;;;5042883;28;20033;-79
2021/11/10 00:16:41;;;;;;;16.67;9.07;;;2.80;99.90;;;;;;5039679;28;20029;-79
2021/11/10 00:19:08;;;;;;;17.85;9.43;;;2.80;99.90;;;;;;5041541;28;20021;-80
2021/11/10 00:21:34;;;;;;;15.85;8.80;;;2.80;99.90;;;;;;5022437;28;20048;-78
2021/11/10 00:24:01;;;;;;;14.25;8.68;;;2.80;99.90;;;;;;5042333;28;20013;-79
2021/11/10 00:26:27;;;;;;;15.55;8.52;;;2.80;99.90;;;;;;5041515;28;20037;-79
2021/11/10 00:28:53;;;;;;;16.10;8.70;;;2.80;99.90;;;;;;5040531;28;20021;-77
2021/11/10 00:31:20;;;;;;;9.93;7.10;;;2.70;99.90;;;;;;5008872;28;20038;-78
2021/11/10 00:33:46;;;;;;;14.85;8.60;;;2.70;99.90;;;;;;5003857;28;20022;-78
2021/11/10 00:36:13;;;;;;;13.80;8.90;;;2.70;99.90;;;;;;5003202;28;20105;-78
2021/11/10 00:38:40;;;;;;;13.23;7.95;;;2.70;99.90;;;;;;5022179;28;20022;-78
2021/11/10 00:41:06;;;;;;;9.55;7.13;;;2.60;99.90;;;;;;5020237;28;20026;-78
2021/11/10 00:43:33;;;;;;;12.00;8.18;;;2.60;99.90;;;;;;5021269;28;20030;-77
2021/11/10 00:45:58;;;;;;;9.77;7.63;;;2.60;99.90;;;;;;5024667;28;20046;-77
2021/11/10 00:48:24;;;;;;;12.95;7.07;;;2.60;99.90;;;;;;5039954;28;20028;-77
2021/11/10 00:50:50;;;;;;;11.38;7.43;;;2.60;99.90;;;;;;5024886;28;20099;-78
2021/11/10 00:53:16;;;;;;;12.18;7.65;;;2.60;99.90;;;;;;5043530;28;20371;-78
2021/11/10 00:55:42;;;;;;;11.70;6.95;;;2.60;99.90;;;;;;5045545;28;20037;-77
2021/11/10 00:58:09;;;;;;;14.10;7.60;;;2.60;99.90;;;;;;5051351;28;20025;-76
2021/11/10 01:00:35;;;;;;;14.18;7.15;;;2.60;99.90;;;;;;5035739;28;20097;-78
2021/11/10 01:03:01;;;;;;;11.40;7.05;;;2.70;99.90;;;;;;5040953;28;20028;-77
2021/11/10 01:05:28;;;;;;;11.73;7.28;;;2.60;99.90;;;;;;5018254;28;20072;-79
2021/11/10 01:07:55;;;;;;;12.10;7.32;;;2.60;99.90;;;;;;5017355;28;20056;-77
2021/11/10 01:10:22;;;;;;;12.60;7.65;;;2.60;99.90;;;;;;5018844;28;20025;-79
2021/11/10 01:12:49;;;;;;;8.75;6.50;;;2.60;99.90;;;;;;5000983;28;20026;-78
2021/11/10 01:15:15;;;;;;;12.40;7.13;;;2.60;99.90;;;;;;5018427;28;20030;-78
2021/11/10 01:17:42;;;;;;;14.48;7.60;;;2.60;99.90;;;;;;5018525;28;20479;-79
2021/11/10 01:20:09;;;;;;;10.95;7.15;;;2.60;99.90;;;;;;5023362;28;20017;-78
2021/11/10 01:22:35;;;;;;;10.60;7.15;;;2.60;99.90;;;;;;5039227;28;20020;-79
2021/11/10 01:25:02;;;;;;;10.88;7.40;;;2.60;99.90;;;;;;5038604;28;20029;-78
2021/11/10 01:27:28;;;;;;;11.00;7.35;;;2.60;99.90;;;;;;5039949;28;20021;-79
2021/11/10 01:29:53;;;;;;;12.85;8.10;;;2.60;99.90;;;;;;5039691;28;20066;-79
2021/11/10 01:32:19;;;;;;;12.35;7.80;;;2.60;99.90;;;;;;5038586;28;20036;-79
2021/11/10 01:34:45;;;;;;;11.25;7.13;;;2.60;99.90;;;;;;5036389;28;20025;-79
2021/11/10 01:37:11;;;;;;;16.15;8.48;;;2.60;99.90;;;;;;5037533;28;20037;-79
2021/11/10 01:39:37;;;;;;;9.57;6.97;;;2.60;99.90;;;;;;5039138;28;20079;-79
2021/11/10 01:42:05;;;;;;;10.95;7.43;;;2.60;99.90;;;;;;5021121;28;20421;-78
2021/11/10 01:44:34;;;;;;;10.73;7.15;;;2.60;99.90;;;;;;5021049;28;20094;-78
2021/11/10 01:47:10;;;;;;;9.68;6.63;;;2.60;99.90;;;;;;5038602;28;20085;-81
2021/11/10 01:49:37;;;;;;;11.10;7.78;;;2.60;99.90;;;;;;5038204;28;20395;-78
2021/11/10 01:52:04;;;;;;;11.20;7.00;;;2.60;99.90;;;;;;5038761;28;20063;-79
2021/11/10 01:54:32;;;;;;;10.05;7.38;;;2.50;99.90;;;;;;5037170;28;20385;-78
2021/11/10 01:56:58;;;;;;;10.57;7.30;;;2.60;99.90;;;;;;5039370;28;20038;-78
2021/11/10 01:59:34;;;;;;;9.52;6.70;;;2.60;99.90;;;;;;5043965;28;20021;-78
2021/11/10 02:02:02;;;;;;;10.63;6.95;;;2.60;99.90;;;;;;5028422;28;20026;-78
2021/11/10 02:04:30;;;;;;;10.85;7.10;;;2.60;99.90;;;;;;5048531;28;20056;-78
2021/11/10 02:06:57;;;;;;;12.65;7.40;;;2.60;99.90;;;;;;5047206;28;20405;-79
2021/11/10 02:09:24;;;;;;;9.85;7.13;;;2.60;99.90;;;;;;5027573;28;20026;-77
2021/11/10 02:11:51;;;;;;;7.90;6.53;;;2.60;99.90;;;;;;5027433;28;20497;-78
2021/11/10 02:14:22;;;;;;;9.57;6.35;;;2.60;99.90;;;;;;5027969;28;20040;-78
2021/11/10 02:16:49;;;;;;;12.07;7.40;;;2.70;99.90;;;;;;5038950;28;20018;-78
2021/11/10 02:19:16;;;;;;;11.20;7.18;;;2.60;99.90;;;;;;5007213;28;20550;-77
2021/11/10 02:21:54;;;;;;;14.35;8.10;;;2.60;99.90;;;;;;5025231;28;20121;-77
2021/11/10 02:24:23;;;;;;;12.15;8.00;;;2.60;99.90;;;;;;5027497;28;20052;-77
2021/11/10 02:26:49;;;;;;;13.23;8.25;;;2.60;99.90;;;;;;5026595;28;20022;-78
2021/11/10 02:29:17;;;;;;;11.60;8.60;;;2.60;99.90;;;;;;5044798;28;20419;-78
2021/11/10 02:31:45;;;;;;;10.05;7.22;;;2.60;99.90;;;;;;5031785;28;20050;-77
2021/11/10 02:34:11;;;;;;;13.48;8.18;;;2.50;99.90;;;;;;5010617;28;20037;-78
2021/11/10 02:36:38;;;;;;;10.55;7.90;;;2.50;99.90;;;;;;5029173;28;20073;-77
2021/11/10 02:39:11;;;;;;;11.15;7.35;;;2.50;99.90;;;;;;5025736;28;20030;-78
2021/11/10 02:41:39;;;;;;;10.25;7.20;;;2.60;99.90;;;;;;5024176;28;20026;-78
2021/11/10 02:44:06;;;;;;;10.45;7.03;;;2.60;99.90;;;;;;5007181;28;20026;-79
2021/11/10 02:46:36;;;;;;;10.68;6.72;;;2.60;99.90;;;;;;5041400;28;20101;-79
2021/11/10 02:49:04;;;;;;;9.75;6.32;;;2.60;99.90;;;;;;5040543;28;20417;-78
2021/11/10 02:51:30;;;;;;;9.85;6.18;;;2.50;99.90;;;;;;5023319;28;20070;-76
2021/11/10 02:53:56;;;;;;;10.02;7.60;;;2.50;99.90;;;;;;5028172;28;20026;-78
2021/11/10 02:56:22;;;;;;;9.27;6.75;;;2.50;99.90;;;;;;5044411;28;20029;-79
2021/11/10 02:58:48;;;;;;;11.70;7.60;;;2.60;99.90;;;;;;5043685;28;20085;-77
2021/11/10 03:01:15;;;;;;;8.85;6.97;;;2.50;99.90;;;;;;5046482;28;20032;-76
2021/11/10 03:03:41;;;;;;;10.45;7.00;;;2.50;99.90;;;;;;5047591;28;20089;-78
2021/11/10 03:06:06;;;;;;;9.20;6.57;;;2.50;99.90;;;;;;5047415;28;20032;-77
2021/11/10 03:08:32;;;;;;;8.20;6.43;;;2.40;99.90;;;;;;5046367;28;20494;-77
2021/11/10 03:10:58;;;;;;;11.05;6.50;;;2.40;99.90;;;;;;5028232;28;20509;-76
2021/11/10 03:13:24;;;;;;;7.72;5.80;;;2.40;99.90;;;;;;5028869;28;20029;-79
2021/11/10 03:15:50;;;;;;;8.88;6.45;;;2.40;99.90;;;;;;5028859;28;20117;-78
2021/11/10 03:18:16;;;;;;;9.48;7.03;;;2.40;99.90;;;;;;5034598;28;20034;-78
2021/11/10 03:20:42;;;;;;;10.90;7.65;;;2.40;99.90;;;;;;5004018;28;20029;-78
2021/11/10 03:23:09;;;;;;;11.43;7.47;;;2.40;99.90;;;;;;5021590;28;20022;-79
2021/11/10 03:25:35;;;;;;;11.40;7.28;;;2.40;99.90;;;;;;5020806;28;20045;-79
2021/11/10 03:28:01;;;;;;;10.50;6.47;;;2.50;99.90;;;;;;5022100;28;20100;-79
2021/11/10 03:30:27;;;;;;;12.30;7.38;;;2.40;99.90;;;;;;5004686;28;20029;-79
2021/11/10 03:32:55;;;;;;;13.20;8.30;;;2.40;99.90;;;;;;5003323;28;20042;-78
2021/11/10 03:35:24;;;;;;;12.40;7.20;;;2.40;99.90;;;;;;5035103;28;20025;-79
2021/11/10 03:37:50;;;;;;;10.60;6.80;;;2.30;99.90;;;;;;5040476;28;20037;-79
2021/11/10 03:40:16;;;;;;;11.32;6.97;;;2.30;99.90;;;;;;5043198;28;20026;-80
2021/11/10 03:42:42;;;;;;;10.75;7.30;;;2.30;99.90;;;;;;5041353;28;20430;-77
2021/11/10 03:45:10;;;;;;;9.18;6.68;;;2.30;99.90;;;;;;5040540;28;20014;-79
2021/11/10 03:47:37;;;;;;;11.95;7.15;;;2.30;99.90;;;;;;5041320;28;20022;-78
2021/11/10 03:50:04;;;;;;;11.13;5.97;;;2.40;99.90;;;;;;5040772;28;20089;-79
2021/11/10 03:52:30;;;;;;;9.18;6.35;;;2.40;99.90;;;;;;5045589;28;20025;-78
2021/11/10 03:54:56;;;;;;;9.23;6.00;;;2.40;99.90;;;;;;5054296;28;20468;-76
2021/11/10 03:57:22;;;;;;;11.00;7.15;;;2.30;99.90;;;;;;5035821;28;20116;-77
2021/11/10 03:59:48;;;;;;;8.98;6.25;;;2.40;99.90;;;;;;5018137;28;20026;-78
2021/11/10 04:02:14;;;;;;;9.18;5.95;;;2.40;99.90;;;;;;5036537;28;20056;-78
2021/11/10 04:04:39;;;;;;;10.02;6.63;;;2.40;99.90;;;;;;5031999;28;20034;-80
2021/11/10 04:07:08;;;;;;;10.40;5.95;;;2.40;99.90;;;;;;5033379;28;20123;-80
2021/11/10 04:09:33;;;;;;;12.73;7.30;;;2.40;99.90;;;;;;5028313;28;20037;-78
2021/11/10 04:11:59;;;;;;;8.90;6.40;;;2.50;99.90;;;;;;5045123;28;20022;-78
2021/11/10 04:14:25;;;;;;;9.27;6.47;;;2.50;99.90;;;;;;5042742;28;20021;-78
2021/11/10 04:16:51;;;;;;;9.98;7.15;;;2.50;99.90;;;;;;5034423;28;20141;-77
2021/11/10 04:19:17;;;;;;;11.70;7.18;;;2.50;99.90;;;;;;5022205;28;20394;-79
2021/11/10 04:21:43;;;;;;;9.73;7.07;;;2.50;99.90;;;;;;5019118;28;20064;-78
2021/11/10 04:24:08;;;;;;;10.82;7.28;;;2.40;99.90;;;;;;5004929;28;20110;-77
2021/11/10 04:26:38;;;;;;;10.75;6.95;;;2.40;99.90;;;;;;5004653;28;20161;-77
2021/11/10 04:29:05;;;;;;;10.43;7.13;;;2.50;99.90;;;;;;5020323;28;20018;-78
2021/11/10 04:31:31;;;;;;;12.52;8.05;;;2.40;99.90;;;;;;5019536;28;20065;-76
2021/11/10 04:33:58;;;;;;;13.10;8.13;;;2.40;99.90;;;;;;5019250;28;20173;-80
2021/11/10 04:36:25;;;;;;;11.45;7.68;;;2.30;99.90;;;;;;5019333;28;20034;-79
2021/11/10 04:38:51;;;;;;;12.60;7.88;;;2.40;99.90;;;;;;5001824;28;20080;-79
2021/11/10 04:41:17;;;;;;;10.98;7.22;;;2.40;99.90;;;;;;5000303;28;20030;-79
2021/11/10 04:43:43;;;;;;;9.88;6.70;;;2.40;99.90;;;;;;5000518;28;20114;-78
2021/11/10 04:46:42;;;;;;;12.20;8.30;;;2.30;99.90;;;;;;5018449;28;20030;-78
2021/11/10 04:49:04;;;;;;;14.00;8.43;;;2.40;99.90;;;;;;5031651;28;20118;-79
2021/11/10 04:51:31;;;;;;;14.35;8.93;;;2.30;99.90;;;;;;5039101;28;20047;-77
2021/11/10 04:53:57;;;;;;;11.13;7.45;;;2.30;99.90;;;;;;5038774;28;20100;-78
2021/11/10 04:56:24;;;;;;;11.57;7.65;;;2.20;99.90;;;;;;5019218;28;20536;-79
2021/11/10 04:58:50;;;;;;;11.93;8.23;;;2.20;99.90;;;;;;5036629;28;20037;-78
2021/11/10 05:01:25;;;;;;;14.02;8.35;;;2.20;99.90;;;;;;5037266;28;20053;-79
2021/11/10 05:03:52;;;;;;;10.63;7.82;;;2.20;99.90;;;;;;5035709;28;20027;-77
2021/11/10 05:06:19;;;;;;;12.30;7.18;;;2.20;99.90;;;;;;5035842;28;20390;-79
2021/11/10 05:08:46;;;;;;;11.95;7.70;;;2.20;99.90;;;;;;5009175;28;20388;-79
2021/11/10 05:11:12;;;;;;;10.40;6.63;;;2.30;99.90;;;;;;5016849;28;20367;-78
2021/11/10 05:13:37;;;;;;;11.65;6.85;;;2.40;99.90;;;;;;5016732;28;20124;-77
2021/11/10 05:16:03;;;;;;;10.63;6.68;;;2.40;99.90;;;;;;5017210;28;20030;-78
2021/11/10 05:18:29;;;;;;;11.02;6.78;;;2.40;99.90;;;;;;5021305;28;20085;-79
2021/11/10 05:20:55;;;;;;;11.43;7.60;;;2.40;99.90;;;;;;5037056;28;20045;-79
2021/11/10 05:23:21;;;;;;;10.43;6.18;;;2.50;99.90;;;;;;5037029;28;20101;-79
2021/11/10 05:25:48;;;;;;;9.52;6.30;;;2.50;99.90;;;;;;5036591;28;20121;-78
2021/11/10 05:28:13;;;;;;;11.13;5.82;;;2.50;99.90;;;;;;5036725;28;20017;-77
2021/11/10 05:30:39;;;;;;;8.90;5.90;;;2.50;99.90;;;;;;5017905;28;20110;-79
2021/11/10 05:33:05;;;;;;;8.82;6.05;;;2.60;99.90;;;;;;5016457;28;20509;-78
2021/11/10 05:35:32;;;;;;;5.90;4.97;;;2.60;99.90;;;;;;5016030;28;20045;-78
2021/11/10 05:37:58;;;;;;;15.35;7.30;;;2.60;99.90;;;;;;5007030;22;20317;-82
2021/11/10 05:40:24;;;;;;;12.52;7.70;;;2.60;99.90;;;;;;4978577;28;20537;-82
2021/11/10 05:42:50;;;;;;;13.90;7.70;;;2.50;99.90;;;;;;4985656;28;20045;-82
2021/11/10 05:45:16;;;;;;;11.10;7.22;;;2.50;99.90;;;;;;4997765;28;20065;-82
2021/11/10 05:47:41;;;;;;;10.48;7.38;;;2.50;99.90;;;;;;4999913;28;20490;-83
2021/11/10 05:50:09;;;;;;;11.88;7.20;;;2.50;99.90;;;;;;5003621;28;20423;-82
2021/11/10 05:52:35;;;;;;;10.55;6.75;;;2.40;99.90;;;;;;5004960;28;20089;-83
2021/11/10 05:55:03;;;;;;;8.68;5.68;;;2.40;99.90;;;;;;4987326;28;20034;-83
2021/11/10 05:57:29;;;;;;;10.52;7.13;;;2.40;99.90;;;;;;5004215;28;20022;-83
2021/11/10 05:59:55;;;;;;;9.15;5.80;;;2.40;99.90;;;;;;5007578;28;20027;-82
2021/11/10 06:02:21;;;;;;;8.10;5.85;;;2.40;99.90;;;;;;5011875;28;20101;-81
2021/11/10 06:04:47;;;;;;;8.27;6.18;;;2.50;99.90;;;;;;4994837;28;20023;-82
2021/11/10 06:07:13;;;;;;;7.88;5.82;;;2.50;99.90;;;;;;5007113;28;20038;-83
2021/11/10 06:09:38;;;;;;;8.40;5.68;;;2.50;99.90;;;;;;5002600;28;20090;-83
2021/11/10 06:12:05;;;;;;;10.27;6.32;;;2.50;99.90;;;;;;5004914;28;20031;-82
2021/11/10 06:14:32;;;;;;;8.95;6.20;;;2.50;99.90;;;;;;5002902;28;20034;-84
2021/11/10 06:16:58;;;;;;;7.47;5.40;;;2.50;99.90;;;;;;5004320;28;20022;-82
2021/11/10 06:19:26;;;;;;;10.95;5.78;;;2.50;99.90;;;;;;5002954;28;20086;-82
2021/11/10 06:21:55;;;;;;;8.13;6.53;;;2.50;99.90;;;;;;5001855;28;20031;-82
2021/11/10 06:24:21;;;;;;;9.80;6.65;;;2.40;99.90;;;;;;5001053;28;20022;-83
2021/11/10 06:26:48;;;;;;;10.20;6.45;;;2.50;99.90;;;;;;5005191;28;20029;-81
2021/11/10 06:29:14;;;;;;;12.20;7.18;;;2.50;99.90;;;;;;5003968;28;20053;-82
2021/11/10 06:31:40;;;;;;;10.73;6.72;;;2.50;99.90;;;;;;5001921;28;20098;-82
2021/11/10 06:34:06;;;;;;;8.60;6.68;;;2.60;99.90;;;;;;4986274;28;20031;-82
2021/11/10 06:36:31;;;;;;;11.50;7.28;;;2.60;99.90;;;;;;4987505;28;20026;-82
2021/11/10 06:38:57;;;;;;;10.73;7.72;;;2.70;99.90;;;;;;5006984;28;20022;-83
2021/11/10 06:41:23;;;;;;;10.07;6.22;;;2.80;99.90;;;;;;5005531;28;20082;-83
2021/11/10 06:43:50;;;;;;;9.05;6.60;;;2.80;99.90;;;;;;5005400;28;20041;-83
2021/11/10 06:46:17;;;;;;;12.15;7.32;;;2.90;99.90;;;;;;5009535;28;20018;-82
2021/11/10 06:48:44;;;;;;;9.25;6.78;;;2.90;99.90;;;;;;5005401;28;20034;-82
2021/11/10 06:51:14;;;;;;;9.90;6.60;;;3.00;99.90;;;;;;4987046;28;20034;-81
2021/11/10 06:53:41;;;;;;;10.05;7.05;;;3.00;99.90;;;;;;4987521;28;20456;-81
2021/11/10 06:56:07;;;;;;;10.45;6.80;;;3.10;99.90;;;;;;4988128;28;20026;-81
2021/11/10 06:58:33;;;;;;;9.55;5.80;;;3.10;99.90;;;;;;4987432;28;20538;-82
2021/11/10 07:00:58;;;;;;;9.05;6.35;;;3.10;99.90;;;;;;4985283;28;20037;-82
2021/11/10 07:03:24;;;;;;;7.30;5.05;;;3.20;99.90;;;;;;4986241;28;20026;-83
2021/11/10 07:05:50;;;;;;;9.45;5.10;;;3.30;99.90;;;;;;4987499;28;20054;-82
2021/11/10 07:08:16;;;;;;;7.25;4.97;;;3.40;99.90;;;;;;4970009;28;20031;-82
2021/11/10 07:10:42;;;;;;;8.75;5.47;;;3.50;99.90;;;;;;4986490;28;20080;-81
2021/11/10 07:13:08;;;;;;;8.57;5.55;;;3.60;99.90;;;;;;4986786;28;20118;-83
2021/11/10 07:15:34;;;;;;;9.52;6.40;;;3.70;99.90;;;;;;4987083;28;20025;-84
2021/11/10 07:18:00;;;;;;;6.97;5.30;;;3.70;99.90;;;;;;4987292;28;20035;-85
2021/11/10 07:20:37;;;;;;;6.65;4.90;;;3.90;99.90;;;;;;4990857;28;20050;-86
2021/11/10 07:23:03;;;;;;;8.77;5.15;;;4.10;99.90;;;;;;4987534;28;20114;-87
2021/11/10 07:25:30;;;;;;;8.23;5.28;;;4.10;99.90;;;;;;4975514;28;20039;-86
2021/11/10 07:28:08;;;;;;;8.90;5.32;;;4.30;99.90;;;;;;5001730;28;20093;-86
2021/11/10 07:30:34;;;;;;;7.87;4.80;;;4.30;99.90;;;;;;5002096;28;20060;-87
2021/11/10 07:33:00;;;;;;;6.53;4.63;;;4.40;99.90;;;;;;4985855;28;20040;-87
2021/11/10 07:35:27;;;;;;;7.65;4.28;;;4.40;99.90;;;;;;4985056;28;20030;-86
2021/11/10 07:37:53;;;;;;;6.93;4.47;;;4.50;99.90;;;;;;4984642;28;20454;-87
2021/11/10 07:40:19;;;;;;;6.75;4.22;;;4.50;99.90;;;;;;5003357;28;20026;-87
2021/11/10 07:42:46;;;;;;;6.20;4.22;;;4.60;99.90;;;;;;4986699;28;20022;-87
2021/11/10 07:45:19;;;;;;;9.07;4.82;;;4.60;99.90;;;;;;5000566;28;20014;-86
2021/11/10 07:47:46;;;;;;;8.02;5.03;;;4.70;99.90;;;;;;4984432;28;20023;-88
2021/11/10 07:50:18;;;;;;;6.97;5.13;;;4.80;99.90;;;;;;4985493;28;20040;-87
2021/11/10 07:52:45;;;;;;;6.25;4.32;;;5.00;99.90;;;;;;4988124;28;20036;-87
2021/11/10 07:55:12;;;;;;;7.60;5.40;;;5.10;99.90;;;;;;4992013;28;20031;-85
2021/11/10 07:57:38;;;;;;;7.57;4.75;;;5.20;99.90;;;;;;4965495;28;20081;-86
2021/11/10 08:00:11;;;;;;;7.50;4.70;;;5.20;99.70;;;;;;4983556;28;20042;-86
2021/11/10 08:02:37;;;;;;;5.65;3.95;;;5.20;99.50;;;;;;4979274;28;20457;-86
2021/11/10 08:05:03;;;;;;;6.68;4.43;;;5.20;99.40;;;;;;4986587;28;20066;-86
2021/11/10 08:07:29;;;;;;;4.75;3.97;;;5.30;99.40;;;;;;4992327;28;20415;-86
2021/11/10 08:09:55;;;;;;;4.95;3.80;;;5.40;99.20;;;;;;4982946;28;20023;-87
2021/11/10 08:12:21;;;;;;;8.50;4.10;;;5.40;98.90;;;;;;4965120;28;20027;-86
2021/11/10 08:14:47;;;;;;;7.20;4.95;;;5.50;98.80;;;;;;4982150;28;20075;-86
2021/11/10 08:17:13;;;;;;;6.78;4.88;;;5.50;98.50;;;;;;4965394;28;20035;-87
2021/11/10 08:19:38;;;;;;;8.15;4.20;;;5.50;98.40;;;;;;4965624;28;20395;-87
2021/11/10 08:22:05;;;;;;;6.40;4.38;;;5.60;98.40;;;;;;4982470;28;20031;-90
2021/11/10 08:24:32;;;;;;;8.68;4.82;;;5.70;98.30;;;;;;4964811;28;20034;-86
2021/11/10 08:27:04;;;;;;;8.70;4.38;;;5.80;98.10;;;;;;4965762;28;20524;-87
2021/11/10 08:29:35;;;;;;;6.88;4.55;;;5.90;97.90;;;;;;4973012;28;20030;-87
2021/11/10 08:32:01;;;;;;;7.65;5.47;;;5.90;97.70;;;;;;4975957;28;20027;-88
2021/11/10 08:34:26;;;;;;;7.63;4.30;;;6.00;97.50;;;;;;4998100;28;20090;-87
2021/11/10 08:36:55;;;;;;;8.32;4.82;;;6.10;97.10;;;;;;4970195;28;20019;-86
2021/11/10 08:39:21;;;;;;;10.82;5.18;;;6.20;97.20;;;;;;4972581;28;20138;-87
2021/11/10 08:41:48;;;;;;;8.07;5.38;;;6.20;96.70;;;;;;4965387;28;20066;-85
2021/11/10 08:44:20;;;;;;;9.02;4.93;;;6.40;96.40;;;;;;4965834;28;20015;-87
2021/11/10 08:46:46;;;;;;;11.45;5.60;;;6.50;96.10;;;;;;4982169;28;20074;-86
2021/11/10 08:49:12;;;;;;;7.25;4.88;;;6.70;95.60;;;;;;4967686;28;20039;-86
2021/11/10 08:51:39;;;;;;;6.82;4.70;;;6.80;94.90;;;;;;4967436;28;20031;-87
2021/11/10 08:54:06;;;;;;;6.13;4.28;;;6.90;95.00;;;;;;4965361;28;20037;-86
2021/11/10 08:56:33;;;;;;;7.55;4.35;;;7.00;94.30;;;;;;4981642;28;20031;-86
2021/11/10 08:59:01;;;;;;;4.90;4.10;;;7.10;94.10;;;;;;4981494;28;20030;-88
2021/11/10 09:01:26;;;;;;;6.03;4.35;;;7.30;93.70;;;;;;4972022;28;20034;-86
2021/11/10 09:03:52;;;;;;;12.43;3.85;;;7.40;93.20;;;;;;4967193;28;20447;-86
2021/11/10 09:06:18;;;;;;;8.25;4.15;;;7.40;92.80;;;;;;4977628;28;20014;-89
2021/11/10 09:08:44;;;;;;;5.30;4.22;;;7.50;92.50;;;;;;4998154;28;20023;-88
2021/11/10 09:11:18;;;;;;;5.43;3.35;;;7.60;92.20;;;;;;4981733;28;20042;-87
2021/11/10 09:13:53;;;;;;;4.38;3.35;;;7.80;92.00;;;;;;4997720;28;20011;-86
2021/11/10 09:16:19;;;;;;;4.68;2.95;;;8.00;91.60;;;;;;4972407;28;20098;-87
2021/11/10 09:18:49;;;;;;;4.28;3.13;;;8.30;91.10;;;;;;4966131;28;20058;-87
2021/11/10 09:21:15;;;;;;;4.70;2.92;;;8.60;90.60;;;;;;4963915;28;20054;-88
2021/11/10 09:23:41;;;;;;;5.32;3.42;;;8.90;90.10;;;;;;4980242;28;20415;-87
2021/11/10 09:26:07;;;;;;;5.07;3.55;;;9.00;88.40;;;;;;4982325;28;20015;-87
2021/11/10 09:28:38;;;;;;;6.18;4.05;;;8.80;87.50;;;;;;4981803;28;20030;-88
2021/11/10 09:31:04;;;;;;;4.85;3.58;;;8.70;87.90;;;;;;4993463;28;20011;-87
2021/11/10 09:33:40;;;;;;;5.68;3.25;;;8.80;88.30;;;;;;4998793;28;20082;-89
2021/11/10 09:36:06;;;;;;;4.38;3.22;;;8.90;87.80;;;;;;5014067;28;20046;-87
2021/11/10 09:38:33;;;;;;;6.10;3.85;;;8.90;87.80;;;;;;4996336;28;20042;-88
2021/11/10 09:41:00;;;;;;;5.00;3.97;;;8.90;86.60;;;;;;5000624;28;20030;-87
2021/11/10 09:43:33;;;;;;;5.05;3.38;;;8.90;86.20;;;;;;5003007;28;20075;-88
2021/11/10 09:46:00;;;;;;;4.40;3.40;;;8.90;86.20;;;;;;4981153;28;20034;-88
2021/11/10 09:48:27;;;;;;;4.32;3.50;;;8.90;86.10;;;;;;4981155;28;20011;-88
2021/11/10 09:50:53;;;;;;;3.35;2.78;;;8.90;86.10;;;;;;4997523;28;20019;-88
2021/11/10 09:53:20;;;;;;;4.93;3.55;;;8.80;86.00;;;;;;4997543;28;20034;-88
2021/11/10 09:55:47;;;;;;;3.65;3.10;;;8.80;85.80;;;;;;4996344;28;20255;-87
2021/11/10 09:58:14;;;;;;;3.50;3.00;;;8.90;85.80;;;;;;5016781;28;20074;-88
2021/11/10 10:00:48;;;;;;;4.30;3.15;;;8.90;85.80;;;;;;4999919;28;20046;-89
2021/11/10 10:03:15;;;;;;;5.10;3.17;;;9.00;85.60;;;;;;4999900;28;20049;-88
2021/11/10 10:05:42;;;;;;;7.03;4.97;;;9.00;85.00;;;;;;4999919;28;20092;-89
2021/11/10 10:08:10;;;;;;;8.77;5.35;;;8.80;84.10;;;;;;4999903;28;20153;-88
2021/11/10 10:10:37;;;;;;;6.88;4.53;;;8.80;84.80;;;;;;5000294;28;20027;-88
2021/11/10 10:13:31;;;;;;;6.72;4.35;;;8.90;84.90;;;;;;5000421;28;20058;-85
2021/11/10 10:15:57;;;;;;;5.90;4.47;;;8.90;84.60;;;;;;4999472;28;20014;-88
2021/11/10 10:21:39;;;;;;;8.82;5.45;;;9.00;84.30;;;;;;5019560;28;20030;-82
2021/11/10 10:24:06;;;;;;;8.65;5.80;;;8.90;84.20;;;;;;5018271;28;20023;-84
2021/11/10 10:26:32;;;;;;;12.20;7.00;;;9.00;84.20;;;;;;5014413;28;20030;-83
2021/11/10 10:29:07;;;;;;;11.77;6.70;;;8.90;84.20;;;;;;5012899;28;20030;-83
2021/11/10 10:31:34;;;;;;;15.90;6.95;;;8.90;85.20;;;;;;5008449;28;20026;-85
2021/11/10 10:34:06;;;;;;;8.20;5.43;;;8.90;85.70;;;;;;5008421;28;20022;-83
2021/11/10 10:36:34;;;;;;;11.93;6.00;;;9.10;86.10;;;;;;5010140;28;20062;-83
2021/11/10 10:39:07;;;;;;;7.57;5.13;;;9.30;85.00;;;;;;5014148;28;20044;-83
2021/11/10 10:41:36;;;;;;;12.40;6.32;;;9.40;84.10;;;;;;5019567;28;20038;-84
2021/11/10 10:44:08;;;;;;;9.65;6.10;;;9.40;83.50;;;;;;5012771;28;20061;-84
2021/11/10 10:46:37;;;;;;;8.07;5.53;;;9.50;83.30;;;;;;5006902;28;20061;-83
2021/11/10 10:49:15;;;;;;;8.57;5.10;;;9.60;82.60;;;;;;4989024;28;20034;-83
2021/11/10 10:51:49;;;;;;;10.55;5.70;;;9.60;82.10;;;;;;5005173;28;20049;-83
2021/11/10 10:54:15;;;;;;;9.85;5.22;;;9.60;82.10;;;;;;5007270;28;20026;-83
2021/11/10 10:56:49;;;;;;;6.50;4.30;;;9.70;82.30;;;;;;5012860;28;20041;-83
2021/11/10 10:59:16;;;;;;;10.18;4.93;;;9.70;82.20;;;;;;5006396;28;20053;-82
2021/11/10 11:01:50;;;;;;;9.63;5.13;;;9.80;81.50;;;;;;5005392;28;20517;-84
2021/11/10 11:04:19;;;;;;;9.80;5.30;;;9.80;81.10;;;;;;5006035;28;20050;-83
2021/11/10 11:06:45;;;;;;;11.98;5.07;;;9.70;80.70;;;;;;5005858;28;20011;-84
2021/11/10 11:09:18;;;;;;;6.22;4.45;;;9.60;81.80;;;;;;5006645;28;20033;-84
2021/11/10 11:11:57;;;;;;;9.85;5.10;;;9.70;82.00;;;;;;5005586;28;20029;-84
2021/11/10 11:14:41;;;;;;;7.28;4.78;;;9.60;81.30;;;;;;5006480;28;20026;-84
2021/11/10 11:17:25;;;;;;;8.02;4.40;;;9.60;82.60;;;;;;4987662;28;20403;-84
2021/11/10 11:20:05;;;;;;;10.30;4.22;;;9.70;82.50;;;;;;4988459;28;20032;-83
2021/11/10 11:22:33;;;;;;;8.85;4.90;;;9.70;82.10;;;;;;5008737;28;20040;-86
2021/11/10 11:25:13;;;;;;;11.38;5.80;;;9.70;82.20;;;;;;5008574;28;20423;-83
2021/11/10 11:27:50;;;;;;;11.63;5.22;;;9.60;82.30;;;;;;5008076;28;20034;-83
2021/11/10 11:30:16;;;;;;;10.60;5.30;;;9.50;83.30;;;;;;5006975;28;20023;-83
2021/11/10 11:32:49;;;;;;;8.48;4.75;;;9.50;83.30;;;;;;5006984;28;20117;-83
2021/11/10 11:35:31;;;;;;;6.28;4.50;;;9.50;83.70;;;;;;5010521;28;20096;-80
2021/11/10 11:38:05;;;;;;;6.60;4.22;;;9.60;84.30;;;;;;5043854;22;20042;-79
2021/11/10 11:40:33;;;;;;;6.63;3.63;;;9.60;84.80;;;;;;5043631;28;20077;-81
2021/11/10 11:43:01;;;;;;;8.35;4.53;;;9.60;84.70;;;;;;5025229;28;20025;-81
2021/11/10 11:45:33;;;;;;;6.20;3.92;;;9.70;84.90;;;;;;5043312;28;20041;-81
2021/11/10 11:48:01;;;;;;;8.93;4.10;;;9.70;85.20;;;;;;5031144;28;20114;-81
2021/11/10 11:50:27;;;;;;;7.15;4.78;;;9.70;85.30;;;;;;5023089;28;20084;-81
2021/11/10 11:52:53;;;;;;;8.70;4.53;;;9.70;85.50;;;;;;5029300;28;20022;-80
2021/11/10 11:55:26;;;;;;;6.47;4.22;;;9.60;85.40;;;;;;5024093;28;20538;-81
2021/11/10 11:58:05;;;;;;;7.65;5.38;;;9.60;86.00;;;;;;5022438;28;20030;-82
2021/11/10 12:00:41;;;;;;;8.75;4.82;;;9.60;86.50;;;;;;5006047;28;20033;-81
2021/11/10 12:03:26;;;;;;;9.38;4.55;;;9.70;86.50;;;;;;5021573;28;20025;-81
2021/11/10 12:06:02;;;;;;;6.65;4.50;;;9.70;86.50;;;;;;5002897;28;20375;-81
2021/11/10 12:08:43;;;;;;;5.72;3.95;;;9.70;86.30;;;;;;5030376;28;20033;-80
2021/11/10 12:11:36;;;;;;;4.68;3.03;;;9.80;86.30;;;;;;5023190;28;20018;-82
2021/11/10 12:14:08;;;;;;;3.35;2.75;;;9.90;86.10;;;;;;5022818;28;20022;-81
2021/11/10 12:16:55;;;;;;;5.22;3.03;;;10.00;85.70;;;;;;5022513;28;20383;-82
2021/11/10 12:19:33;;;;;;;5.25;2.78;;;10.00;85.10;;;;;;5004809;28;20023;-82
2021/11/10 12:22:19;;;;;;;4.50;2.72;;;10.10;84.90;;;;;;4995159;28;20097;-82
2021/11/10 12:24:56;;;;;;;4.20;3.15;;;10.00;84.90;;;;;;5004368;28;20052;-82
2021/11/10 12:27:35;;;;;;;4.55;3.05;;;9.90;84.90;;;;;;4990146;28;20044;-81
2021/11/10 12:30:09;;;;;;;4.25;2.70;;;9.90;85.70;;;;;;5025707;28;20471;-82
2021/11/10 12:32:36;;;;;;;6.38;3.88;;;10.00;86.00;;;;;;5022900;28;20042;-81
2021/11/10 12:35:04;;;;;;;4.88;3.38;;;10.00;85.00;;;;;;5008395;28;20022;-81
2021/11/10 12:37:40;;;;;;;6.43;3.42;;;10.00;85.30;;;;;;5004377;28;20030;-82
2021/11/10 12:40:14;;;;;;;7.50;4.20;;;9.90;85.60;;;;;;5008048;28;20022;-79
2021/11/10 12:42:49;;;;;;;6.15;3.72;;;9.90;85.40;;;;;;5036338;28;20080;-78
2021/11/10 12:45:29;;;;;;;5.07;3.65;;;9.90;85.20;;;;;;5037059;28;20025;-79
2021/11/10 12:47:58;;;;;;;5.97;3.05;;;9.90;85.70;;;;;;5033489;28;20034;-78
2021/11/10 12:50:42;;;;;;;5.22;3.95;;;9.90;85.90;;;;;;5015459;28;20028;-81
2021/11/10 12:53:13;;;;;;;6.00;3.47;;;9.90;85.80;;;;;;5033911;28;20082;-81
2021/11/10 12:55:55;;;;;;;4.60;3.28;;;9.90;86.00;;;;;;5007016;28;20026;-82
2021/11/10 12:58:23;;;;;;;8.20;3.65;;;10.00;85.60;;;;;;5010292;28;20029;-81
2021/11/10 13:00:54;;;;;;;7.10;4.55;;;9.90;85.40;;;;;;5026281;28;20021;-81
2021/11/10 13:03:26;;;;;;;5.43;3.83;;;9.80;85.90;;;;;;5003510;28;20022;-80